createdAt,value
2019-02-09T00:00:31.398Z,8.30
2019-02-09T00:02:59.971Z,8.30
2019-02-09T00:05:28.727Z,8.30
2019-02-09T00:07:57.317Z,8.30
2019-02-09T00:10:25.919Z,8.30
2019-02-09T00:12:54.328Z,8.30
2019-02-09T00:15:22.758Z,8.30
2019-02-09T00:17:51.201Z,8.30
2019-02-09T00:20:20.356Z,8.30
2019-02-09T00:22:48.834Z,8.30
2019-02-09T00:25:19.207Z,8.30
2019-02-09T00:27:47.670Z,8.30
2019-02-09T00:30:21.381Z,8.30
2019-02-09T00:32:49.997Z,8.30
2019-02-09T00:35:19.915Z,8.30
2019-02-09T00:37:48.827Z,8.30
2019-02-09T00:40:30.190Z,8.30
2019-02-09T00:42:58.796Z,8.30
2019-02-09T00:45:28.253Z,8.30
2019-02-09T00:47:56.994Z,8.30
2019-02-09T00:50:25.659Z,8.20
2019-02-09T00:52:54.254Z,8.30
2019-02-09T00:55:27.062Z,8.40
2019-02-09T00:57:55.882Z,8.40
2019-02-09T01:00:25.609Z,8.40
2019-02-09T01:02:54.185Z,8.40
2019-02-09T01:05:25.679Z,8.30
2019-02-09T01:07:54.126Z,8.40
2019-02-09T01:10:23.439Z,8.30
2019-02-09T01:12:51.866Z,8.30
2019-02-09T01:15:20.467Z,8.30
2019-02-09T01:17:48.871Z,8.20
2019-02-09T01:20:25.095Z,8.10
2019-02-09T01:22:54.957Z,8.10
2019-02-09T01:25:23.635Z,7.90
2019-02-09T01:27:52.323Z,7.90
2019-02-09T01:30:25.946Z,7.90
2019-02-09T01:32:54.497Z,7.90
2019-02-09T01:35:23.060Z,7.80
2019-02-09T01:37:52.226Z,7.70
2019-02-09T01:40:26.603Z,7.50
2019-02-09T01:42:55.178Z,7.30
2019-02-09T01:45:26.108Z,7.20
2019-02-09T01:47:55.073Z,7.20
2019-02-09T01:50:25.042Z,7.20
2019-02-09T01:52:53.603Z,7.20
2019-02-09T01:55:22.378Z,7.20
2019-02-09T01:57:50.974Z,7.10
2019-02-09T02:00:24.778Z,7.10
2019-02-09T02:02:53.701Z,7.10
2019-02-09T02:05:23.780Z,7.00
2019-02-09T02:07:52.553Z,7.00
2019-02-09T02:10:26.926Z,6.90
2019-02-09T02:12:55.734Z,6.90
2019-02-09T02:15:24.757Z,6.80
2019-02-09T02:17:53.195Z,6.70
2019-02-09T02:20:24.238Z,6.60
2019-02-09T02:22:52.727Z,6.50
2019-02-09T02:25:21.294Z,6.40
2019-02-09T02:27:49.787Z,6.30
2019-02-09T02:30:22.849Z,6.30
2019-02-09T02:32:51.741Z,6.20
2019-02-09T02:35:20.442Z,6.20
2019-02-09T02:37:48.866Z,6.20
2019-02-09T02:40:22.215Z,6.20
2019-02-09T02:42:51.167Z,6.20
2019-02-09T02:45:21.772Z,6.20
2019-02-09T02:47:50.583Z,6.20
2019-02-09T02:50:20.744Z,6.20
2019-02-09T02:52:49.506Z,6.30
2019-02-09T02:55:20.551Z,6.30
2019-02-09T02:57:51.172Z,6.30
2019-02-09T03:00:31.038Z,6.30
2019-02-09T03:02:52.387Z,6.30
2019-02-09T03:05:22.528Z,6.30
2019-02-09T03:07:51.207Z,6.30
2019-02-09T03:10:19.911Z,6.30
2019-02-09T03:12:48.755Z,6.30
2019-02-09T03:15:25.514Z,6.30
2019-02-09T03:17:53.973Z,6.30
2019-02-09T03:20:23.335Z,6.30
2019-02-09T03:22:51.819Z,6.40
2019-02-09T03:25:25.956Z,6.50
2019-02-09T03:27:54.632Z,6.50
2019-02-09T03:30:24.287Z,6.50
2019-02-09T03:32:52.898Z,6.60
2019-02-09T03:35:21.619Z,6.60
2019-02-09T03:37:50.039Z,6.60
2019-02-09T03:40:23.782Z,6.60
2019-02-09T03:42:52.458Z,6.60
2019-02-09T03:45:23.583Z,6.60
2019-02-09T03:47:52.255Z,6.60
2019-02-09T03:50:24.011Z,6.60
2019-02-09T03:52:52.506Z,6.70
2019-02-09T03:55:21.005Z,6.60
2019-02-09T03:57:49.494Z,6.60
2019-02-09T04:00:23.210Z,6.70
2019-02-09T04:02:52.292Z,6.60
2019-02-09T04:05:21.671Z,6.70
2019-02-09T04:07:50.427Z,6.60
2019-02-09T04:10:23.650Z,6.70
2019-02-09T04:12:52.151Z,6.70
2019-02-09T04:15:25.393Z,6.70
2019-02-09T04:17:54.344Z,6.70
2019-02-09T04:20:24.230Z,6.80
2019-02-09T04:22:52.841Z,6.80
2019-02-09T04:25:22.400Z,6.70
2019-02-09T04:27:50.905Z,6.70
2019-02-09T04:30:23.960Z,6.70
2019-02-09T04:32:52.393Z,6.70
2019-02-09T04:35:20.983Z,6.70
2019-02-09T04:37:49.465Z,6.80
2019-02-09T04:40:20.643Z,6.70
2019-02-09T04:42:49.234Z,6.80
2019-02-09T04:45:18.685Z,6.70
2019-02-09T04:47:47.277Z,6.80
2019-02-09T04:50:16.940Z,6.80
2019-02-09T04:52:45.465Z,6.90
2019-02-09T04:55:16.720Z,6.80
2019-02-09T04:57:45.180Z,6.80
2019-02-09T05:00:16.549Z,6.80
2019-02-09T05:02:45.039Z,6.90
2019-02-09T05:05:13.724Z,7.00
2019-02-09T05:07:42.278Z,7.00
2019-02-09T05:10:16.371Z,7.00
2019-02-09T05:12:44.975Z,7.10
2019-02-09T05:15:16.059Z,7.10
2019-02-09T05:17:44.598Z,7.10
2019-02-09T05:20:18.720Z,7.10
2019-02-09T05:22:47.482Z,7.10
2019-02-09T05:25:16.259Z,7.20
2019-02-09T05:27:44.922Z,7.10
2019-02-09T05:30:21.647Z,7.00
2019-02-09T05:32:50.305Z,7.00
2019-02-09T05:35:18.801Z,7.00
2019-02-09T05:37:47.398Z,7.00
2019-02-09T05:40:18.194Z,7.00
2019-02-09T05:42:46.822Z,7.10
2019-02-09T05:45:17.666Z,7.10
2019-02-09T05:47:46.102Z,7.10
2019-02-09T05:50:16.956Z,7.10
2019-02-09T05:52:45.943Z,7.10
2019-02-09T05:55:14.993Z,7.10
2019-02-09T05:57:43.551Z,7.20
2019-02-09T06:00:31.455Z,7.20
2019-02-09T06:03:00.054Z,7.20
2019-02-09T06:05:28.483Z,7.20
2019-02-09T06:07:57.170Z,7.00
2019-02-09T06:10:25.894Z,7.00
2019-02-09T06:12:54.283Z,7.00
2019-02-09T06:15:24.669Z,7.10
2019-02-09T06:17:53.252Z,7.00
2019-02-09T06:20:29.671Z,7.10
2019-02-09T06:22:58.267Z,7.00
2019-02-09T06:25:27.148Z,7.10
2019-02-09T06:27:55.731Z,7.10
2019-02-09T06:30:26.661Z,7.10
2019-02-09T06:32:55.337Z,7.10
2019-02-09T06:35:23.994Z,7.20
2019-02-09T06:37:52.512Z,7.20
2019-02-09T06:40:22.366Z,7.10
2019-02-09T06:42:50.833Z,7.10
2019-02-09T06:45:26.590Z,7.20
2019-02-09T06:48:14.762Z,7.20
2019-02-09T06:50:43.201Z,7.20
2019-02-09T06:53:11.615Z,7.10
2019-02-09T06:55:40.141Z,7.10
2019-02-09T06:58:08.637Z,7.10
2019-02-09T07:00:37.050Z,7.20
2019-02-09T07:03:05.722Z,7.20
2019-02-09T07:05:34.130Z,7.20
2019-02-09T07:08:02.570Z,7.10
2019-02-09T07:10:31.059Z,7.10
2019-02-09T07:12:59.517Z,7.10
2019-02-09T07:15:31.030Z,7.10
2019-02-09T07:17:59.630Z,7.10
2019-02-09T07:20:28.186Z,7.20
2019-02-09T07:22:56.738Z,7.10
2019-02-09T07:25:25.823Z,7.10
2019-02-09T07:27:54.378Z,7.10
2019-02-09T07:30:30.050Z,7.10
2019-02-09T07:32:59.422Z,7.10
2019-02-09T07:35:27.990Z,7.10
2019-02-09T07:37:56.743Z,7.10
2019-02-09T07:40:26.310Z,7.20
2019-02-09T07:42:55.195Z,7.30
2019-02-09T07:45:28.374Z,7.20
2019-02-09T07:47:56.886Z,7.10
2019-02-09T07:50:26.938Z,7.10
2019-02-09T07:52:55.461Z,7.00
2019-02-09T07:55:24.399Z,7.00
2019-02-09T07:57:52.970Z,6.90
2019-02-09T08:00:29.052Z,6.60
2019-02-09T08:02:58.139Z,6.50
2019-02-09T08:05:28.989Z,6.40
2019-02-09T08:07:57.756Z,6.20
2019-02-09T08:10:37.223Z,6.10
2019-02-09T08:13:08.564Z,6.10
2019-02-09T08:15:37.227Z,6.20
2019-02-09T08:18:07.375Z,6.20
2019-02-09T08:20:36.059Z,6.10
2019-02-09T08:23:09.646Z,6.10
2019-02-09T08:25:39.324Z,6.00
2019-02-09T08:28:12.010Z,6.00
2019-02-09T08:30:48.641Z,5.90
2019-02-09T08:33:17.114Z,6.00
2019-02-09T08:35:45.639Z,6.00
2019-02-09T08:38:16.118Z,6.10
2019-02-09T08:40:44.773Z,6.10
2019-02-09T08:43:13.452Z,6.20
2019-02-09T08:45:42.169Z,6.30
2019-02-09T08:48:10.843Z,6.40
2019-02-09T08:50:45.462Z,6.50
2019-02-09T08:53:13.969Z,6.50
2019-02-09T08:55:42.408Z,6.70
2019-02-09T08:58:10.840Z,6.70
2019-02-09T09:00:39.515Z,6.90
2019-02-09T09:03:08.038Z,7.00
2019-02-09T09:05:36.876Z,7.00
2019-02-09T09:08:05.971Z,7.10
2019-02-09T09:10:34.446Z,7.20
2019-02-09T09:13:03.507Z,7.10
2019-02-09T09:15:34.790Z,7.00
2019-02-09T09:18:03.494Z,6.80
2019-02-09T09:20:34.578Z,6.80
2019-02-09T09:23:28.640Z,6.90
2019-02-09T09:25:39.691Z,7.10
2019-02-09T09:28:08.280Z,7.20
2019-02-09T09:30:36.713Z,7.30
2019-02-09T09:33:05.607Z,7.30
2019-02-09T09:35:34.022Z,7.50
2019-02-09T09:38:02.602Z,7.60
2019-02-09T09:40:39.743Z,7.60
2019-02-09T09:43:08.353Z,7.80
2019-02-09T09:45:39.397Z,8.10
2019-02-09T09:48:10.367Z,8.10
2019-02-09T09:50:39.159Z,8.20
2019-02-09T09:53:07.596Z,8.30
2019-02-09T09:55:36.297Z,8.30
2019-02-09T09:58:05.999Z,8.50
2019-02-09T10:00:34.802Z,8.50
2019-02-09T10:03:03.508Z,8.60
2019-02-09T10:05:32.011Z,8.90
2019-02-09T10:08:00.604Z,8.90
2019-02-09T10:10:29.181Z,9.10
2019-02-09T10:12:57.698Z,9.10
2019-02-09T10:15:28.123Z,9.20
2019-02-09T10:17:56.697Z,9.00
2019-02-09T10:20:27.327Z,9.10
2019-02-09T10:22:55.828Z,9.00
2019-02-09T10:25:24.711Z,9.10
2019-02-09T10:27:57.691Z,9.00
2019-02-09T10:30:34.096Z,9.00
2019-02-09T10:33:02.701Z,8.90
2019-02-09T10:35:31.404Z,8.90
2019-02-09T10:37:59.820Z,8.80
2019-02-09T10:40:33.362Z,8.80
2019-02-09T10:43:02.646Z,8.80
2019-02-09T10:45:32.107Z,8.90
2019-02-09T10:48:05.082Z,8.90
2019-02-09T10:50:42.106Z,9.10
2019-02-09T10:53:10.679Z,9.20
2019-02-09T10:55:39.331Z,9.50
2019-02-09T10:58:08.513Z,9.70
2019-02-09T11:00:43.003Z,9.70
2019-02-09T11:03:11.550Z,9.40
2019-02-09T11:05:40.035Z,9.40
2019-02-09T11:08:08.879Z,9.50
2019-02-09T11:10:37.443Z,9.70
2019-02-09T11:13:07.202Z,9.80
2019-02-09T11:15:35.952Z,9.70
2019-02-09T11:18:06.440Z,9.80
2019-02-09T11:20:34.919Z,9.90
2019-02-09T11:23:03.848Z,9.90
2019-02-09T11:25:32.264Z,9.70
2019-02-09T11:28:00.777Z,9.50
2019-02-09T11:30:30.458Z,9.50
2019-02-09T11:33:02.023Z,9.50
2019-02-09T11:35:29.254Z,9.50
2019-02-09T11:37:57.826Z,9.40
2019-02-09T11:40:28.112Z,9.30
2019-02-09T11:42:57.566Z,9.20
2019-02-09T11:45:28.811Z,9.30
2019-02-09T11:47:57.487Z,9.20
2019-02-09T11:50:25.909Z,9.10
2019-02-09T11:52:54.347Z,9.30
2019-02-09T11:55:23.316Z,9.30
2019-02-09T11:57:51.922Z,9.30
2019-02-09T12:00:22.816Z,9.20
2019-02-09T12:02:51.233Z,9.20
2019-02-09T12:05:19.921Z,9.20
2019-02-09T12:07:48.819Z,9.40
2019-02-09T12:10:19.881Z,9.50
2019-02-09T12:12:48.682Z,9.90
2019-02-09T12:15:32.884Z,10.10
2019-02-09T12:18:01.460Z,10.20
2019-02-09T12:20:30.016Z,10.40
2019-02-09T12:22:58.538Z,10.40
2019-02-09T12:25:30.109Z,10.30
2019-02-09T12:27:58.667Z,9.70
2019-02-09T12:30:33.135Z,9.60
2019-02-09T12:33:01.564Z,9.70
2019-02-09T12:35:30.124Z,9.70
2019-02-09T12:37:58.557Z,9.70
2019-02-09T12:40:34.600Z,9.80
2019-02-09T12:43:03.394Z,9.80
2019-02-09T12:45:37.485Z,10.00
2019-02-09T12:48:07.403Z,10.00
2019-02-09T12:50:36.272Z,10.00
2019-02-09T12:53:05.432Z,10.00
2019-02-09T12:55:34.182Z,10.00
2019-02-09T12:58:02.780Z,10.10
2019-02-09T13:00:36.638Z,10.20
2019-02-09T13:03:11.036Z,10.40
2019-02-09T13:05:39.578Z,10.30
2019-02-09T13:08:08.407Z,10.20
2019-02-09T13:10:36.874Z,10.10
2019-02-09T13:13:05.439Z,10.10
2019-02-09T13:15:34.840Z,9.80
2019-02-09T13:18:03.420Z,9.80
2019-02-09T13:20:32.954Z,9.90
2019-02-09T13:23:01.710Z,10.00
2019-02-09T13:25:30.191Z,10.10
2019-02-09T13:27:58.733Z,10.00
2019-02-09T13:30:30.267Z,10.10
2019-02-09T13:32:58.837Z,10.00
2019-02-09T13:35:27.583Z,10.00
2019-02-09T13:37:56.083Z,9.80
2019-02-09T13:40:26.468Z,9.70
2019-02-09T13:42:55.131Z,9.60
2019-02-09T13:45:38.059Z,9.50
2019-02-09T13:48:07.167Z,9.10
2019-02-09T13:50:36.034Z,8.50
2019-02-09T13:53:05.447Z,8.30
2019-02-09T13:55:34.132Z,7.90
2019-02-09T13:58:02.653Z,7.80
2019-02-09T14:00:34.191Z,7.80
2019-02-09T14:03:03.720Z,7.70
2019-02-09T14:05:32.206Z,7.70
2019-02-09T14:08:00.916Z,7.70
2019-02-09T14:10:29.870Z,7.80
2019-02-09T14:12:58.431Z,7.90
2019-02-09T14:15:35.625Z,8.10
2019-02-09T14:18:06.925Z,8.20
2019-02-09T14:20:35.518Z,8.30
2019-02-09T14:23:04.730Z,8.40
2019-02-09T14:25:33.305Z,8.60
2019-02-09T14:28:02.503Z,8.60
2019-02-09T14:30:33.539Z,8.70
2019-02-09T14:33:02.694Z,8.70
2019-02-09T14:35:31.209Z,8.70
2019-02-09T14:38:00.099Z,8.70
2019-02-09T14:40:30.777Z,8.80
2019-02-09T14:42:59.883Z,8.80
2019-02-09T14:45:34.159Z,8.80
2019-02-09T14:48:02.719Z,8.80
2019-02-09T14:50:31.190Z,8.80
2019-02-09T14:52:59.914Z,8.80
2019-02-09T14:55:31.081Z,8.80
2019-02-09T14:57:59.723Z,8.90
2019-02-09T15:00:40.045Z,8.90
2019-02-09T15:03:09.539Z,9.00
2019-02-09T15:05:38.063Z,8.80
2019-02-09T15:08:07.394Z,8.80
2019-02-09T15:10:35.978Z,9.00
2019-02-09T15:13:05.745Z,9.00
2019-02-09T15:15:43.454Z,9.00
2019-02-09T15:18:12.697Z,9.00
2019-02-09T15:20:59.602Z,9.00
2019-02-09T15:23:28.205Z,9.00
2019-02-09T15:25:56.617Z,9.00
2019-02-09T15:28:25.050Z,9.00
2019-02-09T15:30:53.677Z,8.90
2019-02-09T15:33:22.114Z,8.30
2019-02-09T15:35:50.624Z,7.90
2019-02-09T15:38:19.268Z,7.70
2019-02-09T15:40:47.844Z,7.50
2019-02-09T15:43:16.343Z,7.30
2019-02-09T15:45:44.754Z,7.10
2019-02-09T15:48:13.295Z,7.00
2019-02-09T15:50:41.754Z,6.90
2019-02-09T15:53:10.247Z,6.90
2019-02-09T15:55:38.687Z,6.80
2019-02-09T15:58:07.220Z,6.80
2019-02-09T16:00:35.882Z,6.80
2019-02-09T16:03:04.564Z,6.80
2019-02-09T16:05:33.075Z,6.80
2019-02-09T16:08:01.491Z,6.80
2019-02-09T16:10:30.011Z,6.80
2019-02-09T16:12:58.510Z,6.80
2019-02-09T16:15:31.212Z,6.70
2019-02-09T16:17:59.718Z,6.80
2019-02-09T16:20:30.307Z,6.70
2019-02-09T16:22:58.866Z,6.70
2019-02-09T16:25:27.741Z,6.80
2019-02-09T16:27:56.242Z,6.80
2019-02-09T16:30:26.308Z,6.80
2019-02-09T16:32:55.090Z,6.70
2019-02-09T16:35:28.472Z,6.80
2019-02-09T16:37:56.891Z,6.90
2019-02-09T16:40:31.434Z,6.80
2019-02-09T16:43:00.025Z,6.90
2019-02-09T16:45:31.565Z,7.00
2019-02-09T16:48:00.247Z,7.00
2019-02-09T16:50:28.818Z,7.00
2019-02-09T16:52:57.320Z,7.00
2019-02-09T16:55:26.036Z,7.00
2019-02-09T16:57:54.868Z,7.00
2019-02-09T17:00:34.845Z,7.10
2019-02-09T17:03:03.802Z,7.00
2019-02-09T17:05:32.306Z,7.10
2019-02-09T17:08:00.746Z,7.10
2019-02-09T17:10:29.178Z,7.00
2019-02-09T17:12:57.602Z,7.00
2019-02-09T17:15:27.387Z,7.00
2019-02-09T17:17:55.891Z,7.20
2019-02-09T17:20:24.546Z,7.20
2019-02-09T17:22:54.002Z,7.20
2019-02-09T17:25:26.596Z,7.20
2019-02-09T17:27:55.212Z,7.30
2019-02-09T17:30:28.607Z,7.40
2019-02-09T17:32:57.035Z,7.40
2019-02-09T17:35:27.034Z,7.30
2019-02-09T17:37:55.842Z,7.30
2019-02-09T17:40:33.330Z,7.30
2019-02-09T17:43:01.845Z,7.30
2019-02-09T17:45:38.843Z,7.50
2019-02-09T17:48:07.354Z,7.50
2019-02-09T17:50:35.799Z,7.60
2019-02-09T17:53:05.376Z,7.60
2019-02-09T17:55:33.797Z,7.60
2019-02-09T17:58:02.232Z,7.60
2019-02-09T18:00:48.771Z,7.70
2019-02-09T18:03:17.175Z,7.70
2019-02-09T18:05:45.648Z,7.70
2019-02-09T18:08:14.142Z,7.70
2019-02-09T18:10:42.555Z,7.70
2019-02-09T18:13:11.008Z,7.70
2019-02-09T18:15:39.430Z,7.70
2019-02-09T18:18:07.920Z,7.60
2019-02-09T18:20:36.493Z,7.50
2019-02-09T18:23:05.351Z,7.50
2019-02-09T18:25:34.064Z,7.50
2019-02-09T18:28:02.587Z,7.60
2019-02-09T18:30:31.944Z,7.70
2019-02-09T18:33:00.346Z,7.60
2019-02-09T18:35:28.862Z,7.50
2019-02-09T18:37:57.278Z,7.40
2019-02-09T18:40:27.035Z,7.40
2019-02-09T18:42:55.810Z,7.40
2019-02-09T18:45:31.996Z,7.50
2019-02-09T18:48:00.555Z,7.60
2019-02-09T18:50:32.773Z,7.60
2019-02-09T18:53:02.361Z,7.70
2019-02-09T18:55:31.583Z,7.70
2019-02-09T18:58:00.189Z,7.90
2019-02-09T19:00:37.519Z,7.80
2019-02-09T19:03:07.398Z,7.80
2019-02-09T19:05:35.951Z,7.80
2019-02-09T19:08:05.695Z,7.80
2019-02-09T19:10:34.116Z,7.80
2019-02-09T19:13:02.688Z,7.70
2019-02-09T19:15:31.239Z,7.70
2019-02-09T19:17:59.895Z,7.70
2019-02-09T19:20:33.783Z,7.80
2019-02-09T19:23:02.362Z,7.80
2019-02-09T19:25:32.471Z,7.90
2019-02-09T19:28:00.919Z,7.80
2019-02-09T19:30:29.411Z,7.80
2019-02-09T19:32:57.890Z,7.90
2019-02-09T19:35:26.358Z,7.80
2019-02-09T19:37:54.791Z,7.80
2019-02-09T19:40:25.082Z,7.80
2019-02-09T19:42:53.611Z,7.70
2019-02-09T19:45:33.083Z,7.70
2019-02-09T19:48:01.860Z,7.70
2019-02-09T19:50:30.425Z,7.60
2019-02-09T19:52:59.083Z,7.60
2019-02-09T19:55:30.279Z,7.70
2019-02-09T19:57:58.755Z,7.70
2019-02-09T20:00:39.382Z,7.80
2019-02-09T20:03:08.178Z,7.80
2019-02-09T20:05:36.754Z,7.70
2019-02-09T20:08:06.812Z,7.70
2019-02-09T20:10:37.242Z,7.80
2019-02-09T20:13:06.543Z,7.80
2019-02-09T20:15:35.050Z,7.70
2019-02-09T20:18:05.319Z,7.80
2019-02-09T20:20:33.831Z,7.80
2019-02-09T20:23:02.258Z,7.80
2019-02-09T20:25:30.678Z,7.70
2019-02-09T20:27:59.183Z,7.70
2019-02-09T20:30:35.899Z,7.70
2019-02-09T20:33:05.176Z,7.50
2019-02-09T20:35:34.042Z,7.50
2019-02-09T20:38:02.566Z,7.40
2019-02-09T20:40:33.174Z,7.40
2019-02-09T20:43:03.859Z,7.30
2019-02-09T20:45:31.953Z,7.30
2019-02-09T20:48:00.467Z,7.20
2019-02-09T20:50:29.050Z,7.20
2019-02-09T20:52:57.642Z,7.10
2019-02-09T20:55:26.143Z,7.10
2019-02-09T20:57:54.607Z,7.10
2019-02-09T21:00:32.703Z,7.10
2019-02-09T21:03:01.217Z,7.10
2019-02-09T21:05:36.056Z,7.20
2019-02-09T21:07:59.854Z,7.20
2019-02-09T21:10:36.366Z,7.10
2019-02-09T21:13:06.070Z,7.10
2019-02-09T21:15:35.346Z,7.10
2019-02-09T21:18:04.505Z,7.10
2019-02-09T21:20:32.982Z,7.10
2019-02-09T21:23:01.469Z,7.10
2019-02-09T21:25:44.591Z,7.10
2019-02-09T21:28:13.146Z,7.10
2019-02-09T21:30:41.597Z,7.10
2019-02-09T21:33:10.163Z,7.10
2019-02-09T21:35:43.676Z,7.20
2019-02-09T21:38:09.466Z,7.20
2019-02-09T21:40:37.905Z,7.30
2019-02-09T21:43:06.688Z,7.20
2019-02-09T21:45:35.254Z,7.20
2019-02-09T21:48:04.093Z,7.30
2019-02-09T21:50:37.086Z,7.30
2019-02-09T21:53:07.097Z,7.30
2019-02-09T21:55:35.771Z,7.30
2019-02-09T21:58:05.247Z,7.30
2019-02-09T22:00:35.818Z,7.40
2019-02-09T22:03:05.910Z,7.40
2019-02-09T22:05:34.501Z,7.40
2019-02-09T22:08:03.059Z,7.50
2019-02-09T22:10:33.997Z,7.40
2019-02-09T22:13:02.580Z,7.50
2019-02-09T22:15:38.278Z,7.50
2019-02-09T22:18:02.536Z,7.50
2019-02-09T22:20:31.034Z,7.50
2019-02-09T22:22:59.810Z,7.50
2019-02-09T22:25:29.473Z,7.50
2019-02-09T22:27:58.136Z,7.40
2019-02-09T22:30:33.491Z,7.50
2019-02-09T22:33:02.245Z,7.50
2019-02-09T22:35:31.036Z,7.60
2019-02-09T22:37:59.813Z,7.50
2019-02-09T22:40:30.556Z,7.60
2019-02-09T22:42:59.038Z,7.60
2019-02-09T22:45:28.702Z,7.60
2019-02-09T22:47:57.850Z,7.70
2019-02-09T22:50:38.041Z,7.70
2019-02-09T22:53:06.717Z,7.70
2019-02-09T22:55:35.195Z,7.70
2019-02-09T22:58:04.330Z,7.70
2019-02-09T23:00:53.877Z,7.70
2019-02-09T23:03:28.374Z,7.70
2019-02-09T23:06:11.965Z,7.70
2019-02-09T23:08:42.386Z,7.70
2019-02-09T23:11:10.822Z,7.70
2019-02-09T23:13:39.335Z,7.60
2019-02-09T23:16:07.748Z,7.70
2019-02-09T23:18:36.201Z,7.70
2019-02-09T23:21:04.618Z,7.60
2019-02-09T23:23:33.065Z,7.60
2019-02-09T23:26:01.552Z,7.50
2019-02-09T23:28:30.044Z,7.60
2019-02-09T23:30:58.498Z,7.50
2019-02-09T23:33:26.930Z,7.60
2019-02-09T23:35:55.363Z,7.50
2019-02-09T23:38:23.808Z,7.50
2019-02-09T23:40:52.230Z,7.50
2019-02-09T23:43:20.727Z,7.50
2019-02-09T23:45:49.151Z,7.50
2019-02-09T23:48:17.589Z,7.50
2019-02-09T23:50:46.080Z,7.50
2019-02-09T23:53:14.590Z,7.40
2019-02-09T23:55:43.034Z,7.40
2019-02-09T23:58:11.534Z,7.40
